createdAt,value
2017-10-05T00:00:07.935Z,4.87
2017-10-05T00:02:36.224Z,5.17
2017-10-05T00:05:04.555Z,4.23
2017-10-05T00:07:32.850Z,3.83
2017-10-05T00:10:01.138Z,4.37
2017-10-05T00:12:29.453Z,4.77
2017-10-05T00:14:58.506Z,3.93
2017-10-05T00:17:26.835Z,3.37
2017-10-05T00:19:55.129Z,4.37
2017-10-05T00:22:23.414Z,4.67
2017-10-05T00:24:53.242Z,3.70
2017-10-05T00:27:21.519Z,4.53
2017-10-05T00:32:24.106Z,3.17
2017-10-05T00:34:52.525Z,3.40
2017-10-05T00:37:20.811Z,3.53
2017-10-05T00:39:49.134Z,3.80
2017-10-05T00:42:18.182Z,3.57
2017-10-05T00:44:46.466Z,3.20
2017-10-05T00:47:14.789Z,3.10
2017-10-05T00:49:43.107Z,3.87
2017-10-05T00:52:12.186Z,3.93
2017-10-05T00:54:40.494Z,2.50
2017-10-05T00:57:08.774Z,2.60
2017-10-05T00:59:38.607Z,3.03
2017-10-05T01:02:06.921Z,3.87
2017-10-05T01:04:35.966Z,2.40
2017-10-05T01:07:04.278Z,2.80
2017-10-05T01:09:32.567Z,3.47
2017-10-05T01:12:00.887Z,2.50
2017-10-05T01:14:29.977Z,2.50
2017-10-05T01:16:58.272Z,2.67
2017-10-05T01:19:26.555Z,2.70
2017-10-05T01:21:54.870Z,3.33
2017-10-05T01:24:23.918Z,3.70
2017-10-05T01:26:52.347Z,3.40
2017-10-05T01:29:20.667Z,3.60
2017-10-05T01:31:48.951Z,2.73
2017-10-05T01:34:18.019Z,3.07
2017-10-05T01:36:46.325Z,2.80
2017-10-05T01:39:14.611Z,2.40
2017-10-05T01:41:42.931Z,3.50
2017-10-05T01:44:11.258Z,3.40
2017-10-05T01:46:39.544Z,3.40
2017-10-05T01:49:07.854Z,2.60
2017-10-05T01:51:36.203Z,2.97
2017-10-05T01:54:04.516Z,3.00
2017-10-05T01:56:32.902Z,2.70
2017-10-05T01:59:01.214Z,2.53
2017-10-05T02:01:29.509Z,3.10
2017-10-05T02:03:57.896Z,2.17
2017-10-05T02:06:27.696Z,3.30
2017-10-05T02:08:55.974Z,2.50
2017-10-05T02:11:24.303Z,2.50
2017-10-05T02:13:52.694Z,2.97
2017-10-05T02:16:21.007Z,2.67
2017-10-05T02:18:50.086Z,2.47
2017-10-05T02:21:18.398Z,2.60
2017-10-05T02:23:47.483Z,2.77
2017-10-05T02:26:15.763Z,3.00
2017-10-05T02:28:44.108Z,2.70
2017-10-05T02:31:12.391Z,2.60
2017-10-05T02:33:41.437Z,2.60
2017-10-05T02:36:09.769Z,2.33
2017-10-05T02:38:38.814Z,2.43
2017-10-05T02:41:07.143Z,2.50
2017-10-05T02:43:35.458Z,3.53
2017-10-05T02:46:03.735Z,3.63
2017-10-05T02:48:32.120Z,3.80
2017-10-05T02:51:00.403Z,3.37
2017-10-05T02:53:28.727Z,3.93
2017-10-05T02:55:57.775Z,3.57
2017-10-05T02:58:26.055Z,4.13
2017-10-05T03:00:54.376Z,4.07
2017-10-05T03:03:22.663Z,3.67
2017-10-05T03:05:51.054Z,4.77
2017-10-05T03:08:19.342Z,4.40
2017-10-05T03:10:47.669Z,7.47
2017-10-05T03:13:16.762Z,4.73
2017-10-05T03:15:45.039Z,6.30
2017-10-05T03:18:13.422Z,6.50
2017-10-05T03:20:43.276Z,5.43
2017-10-05T03:23:12.354Z,5.33
2017-10-05T03:25:40.646Z,5.73
2017-10-05T03:28:08.977Z,5.53
2017-10-05T03:30:37.259Z,5.80
2017-10-05T03:33:06.341Z,6.57
2017-10-05T03:35:34.658Z,5.97
2017-10-05T03:38:03.835Z,7.20
2017-10-05T03:40:32.159Z,6.30
2017-10-05T03:43:01.243Z,7.07
2017-10-05T03:45:30.336Z,9.10
2017-10-05T03:47:58.655Z,7.60
2017-10-05T03:50:27.717Z,8.43
2017-10-05T03:52:56.054Z,8.17
2017-10-05T03:55:25.111Z,7.90
2017-10-05T03:57:53.403Z,7.33
2017-10-05T04:00:21.725Z,8.70
2017-10-05T04:02:50.774Z,8.10
2017-10-05T04:05:19.103Z,7.97
2017-10-05T04:07:47.417Z,7.90
2017-10-05T04:10:16.502Z,8.47
2017-10-05T04:12:44.796Z,9.23
2017-10-05T04:15:13.122Z,9.30
2017-10-05T04:17:41.438Z,8.30
2017-10-05T04:20:09.719Z,8.50
2017-10-05T04:22:38.007Z,8.63
2017-10-05T04:25:06.332Z,8.77
2017-10-05T04:27:34.622Z,8.13
2017-10-05T04:30:02.943Z,9.30
2017-10-05T04:32:32.000Z,9.10
2017-10-05T04:35:00.319Z,8.90
2017-10-05T04:37:28.643Z,8.27
2017-10-05T04:39:56.929Z,9.17
2017-10-05T04:42:26.019Z,7.23
2017-10-05T04:44:55.111Z,8.30
2017-10-05T04:47:23.435Z,8.70
2017-10-05T04:49:52.519Z,8.60
2017-10-05T04:52:21.571Z,8.30
2017-10-05T04:54:49.902Z,8.83
2017-10-05T04:57:18.199Z,8.80
2017-10-05T04:59:46.578Z,10.13
2017-10-05T05:02:16.380Z,8.40
2017-10-05T05:04:44.706Z,8.30
2017-10-05T05:07:12.990Z,8.93
2017-10-05T05:09:41.278Z,8.83
2017-10-05T05:12:09.607Z,9.80
2017-10-05T05:14:37.895Z,7.70
2017-10-05T05:17:06.243Z,8.77
2017-10-05T05:19:36.047Z,8.70
2017-10-05T05:22:04.362Z,8.77
2017-10-05T05:24:34.213Z,8.80
2017-10-05T05:27:03.275Z,8.30
2017-10-05T05:29:31.599Z,8.93
2017-10-05T05:31:59.915Z,8.77
2017-10-05T05:34:28.207Z,10.50
2017-10-05T05:36:56.530Z,9.37
2017-10-05T05:39:25.737Z,9.23
2017-10-05T05:41:54.152Z,9.80
2017-10-05T05:44:22.534Z,10.40
2017-10-05T05:46:50.835Z,9.80
2017-10-05T05:49:19.167Z,10.50
2017-10-05T05:51:47.510Z,11.40
2017-10-05T05:54:15.812Z,10.00
2017-10-05T05:56:44.146Z,11.23
2017-10-05T05:59:12.487Z,10.30
2017-10-05T06:01:40.783Z,10.60
2017-10-05T06:04:09.110Z,11.13
2017-10-05T06:06:37.407Z,11.47
2017-10-05T06:09:05.742Z,11.40
2017-10-05T06:11:34.030Z,11.60
2017-10-05T06:14:02.417Z,12.47
2017-10-05T06:16:30.739Z,10.40
2017-10-05T06:18:59.814Z,12.43
2017-10-05T06:21:28.711Z,11.10
2017-10-05T06:23:57.006Z,12.67
2017-10-05T06:26:25.393Z,11.20
2017-10-05T06:28:53.686Z,11.43
2017-10-05T06:31:22.074Z,11.87
2017-10-05T06:33:50.406Z,12.30
2017-10-05T06:36:18.698Z,13.13
2017-10-05T06:38:47.579Z,11.40
2017-10-05T06:41:16.677Z,11.07
2017-10-05T06:43:44.963Z,12.63
2017-10-05T06:46:13.291Z,11.53
2017-10-05T06:48:41.623Z,12.90
2017-10-05T06:51:09.943Z,11.73
2017-10-05T06:53:39.026Z,11.47
2017-10-05T06:56:07.342Z,11.70
2017-10-05T06:58:36.439Z,11.57
2017-10-05T07:01:04.835Z,12.30
2017-10-05T07:03:33.220Z,11.67
2017-10-05T07:06:01.538Z,11.50
2017-10-05T07:08:29.899Z,12.03
2017-10-05T07:10:58.191Z,10.90
2017-10-05T07:13:26.584Z,10.50
2017-10-05T07:15:54.903Z,10.53
2017-10-05T07:18:23.228Z,11.70
2017-10-05T07:20:51.558Z,10.97
2017-10-05T07:23:20.654Z,9.37
2017-10-05T07:25:48.976Z,9.90
2017-10-05T07:28:18.157Z,9.87
2017-10-05T07:30:46.473Z,9.60
2017-10-05T07:33:15.528Z,9.83
2017-10-05T07:35:43.821Z,8.40
2017-10-05T07:38:12.152Z,8.27
2017-10-05T07:40:41.235Z,8.40
2017-10-05T07:43:09.537Z,8.10
2017-10-05T07:45:38.630Z,9.10
2017-10-05T07:48:06.933Z,7.47
2017-10-05T07:50:36.771Z,7.63
2017-10-05T07:53:05.823Z,8.20
2017-10-05T07:55:34.111Z,7.17
2017-10-05T07:58:02.434Z,7.20
2017-10-05T08:00:30.722Z,7.27
2017-10-05T08:02:59.006Z,5.30
2017-10-05T08:05:27.323Z,6.20
2017-10-05T08:07:56.376Z,6.63
2017-10-05T08:10:24.690Z,5.70
2017-10-05T08:12:53.012Z,5.80
2017-10-05T08:15:22.054Z,5.47
2017-10-05T08:17:50.435Z,5.67
2017-10-05T08:20:18.727Z,4.90
2017-10-05T08:22:47.051Z,4.87
2017-10-05T08:25:15.337Z,5.50
2017-10-05T08:27:43.614Z,4.30
2017-10-05T08:30:11.934Z,4.47
2017-10-05T08:32:40.319Z,4.43
2017-10-05T08:35:08.646Z,3.80
2017-10-05T08:37:37.704Z,5.20
2017-10-05T08:40:06.018Z,5.27
2017-10-05T08:42:34.328Z,3.70
2017-10-05T08:45:03.375Z,3.60
2017-10-05T08:47:31.686Z,3.40
2017-10-05T08:50:00.026Z,4.57
2017-10-05T08:52:28.370Z,3.67
2017-10-05T08:54:56.660Z,3.37
2017-10-05T08:57:24.976Z,3.33
2017-10-05T08:59:54.018Z,2.93
2017-10-05T09:02:22.335Z,2.50
2017-10-05T09:04:50.624Z,2.63
2017-10-05T09:07:18.934Z,2.97
2017-10-05T09:09:47.219Z,2.63
2017-10-05T09:12:15.511Z,2.60
2017-10-05T09:14:43.852Z,2.73
2017-10-05T09:17:12.179Z,2.37
2017-10-05T09:19:40.512Z,2.70
2017-10-05T09:22:09.559Z,2.47
2017-10-05T09:24:37.870Z,2.27
2017-10-05T09:27:06.184Z,2.47
2017-10-05T09:29:35.275Z,2.00
2017-10-05T09:32:03.591Z,2.70
2017-10-05T09:34:32.682Z,3.17
2017-10-05T09:37:01.732Z,2.50
2017-10-05T09:39:30.010Z,1.90
2017-10-05T09:41:58.333Z,2.63
2017-10-05T09:44:26.647Z,2.30
2017-10-05T09:46:55.031Z,1.90
2017-10-05T09:49:23.343Z,2.50
2017-10-05T09:51:52.431Z,2.30
2017-10-05T09:54:20.755Z,1.70
2017-10-05T09:56:49.802Z,2.33
2017-10-05T09:59:18.114Z,2.60
2017-10-05T10:01:46.427Z,2.20
2017-10-05T10:04:15.469Z,3.40
2017-10-05T10:06:43.806Z,2.83
2017-10-05T10:09:12.085Z,3.37
2017-10-05T10:11:41.878Z,2.53
2017-10-05T10:14:10.204Z,2.20
2017-10-05T10:16:38.536Z,2.80
2017-10-05T10:19:07.698Z,2.73
2017-10-05T10:21:35.981Z,3.00
2017-10-05T10:24:04.268Z,3.00
2017-10-05T10:26:32.598Z,2.87
2017-10-05T10:29:01.657Z,2.10
2017-10-05T10:31:29.932Z,3.90
2017-10-05T10:33:58.246Z,2.07
2017-10-05T10:36:26.555Z,2.00
2017-10-05T10:38:54.834Z,2.10
2017-10-05T10:41:23.162Z,2.50
2017-10-05T10:43:51.512Z,1.30
2017-10-05T10:46:19.790Z,1.80
2017-10-05T10:48:48.115Z,2.10
2017-10-05T10:51:17.175Z,1.40
2017-10-05T10:53:45.495Z,1.90
2017-10-05T10:56:13.790Z,1.73
2017-10-05T10:58:42.110Z,1.80
2017-10-05T11:01:10.394Z,1.90
2017-10-05T11:03:38.678Z,2.37
2017-10-05T11:06:07.764Z,1.40
2017-10-05T11:08:36.142Z,1.93
2017-10-05T11:11:04.450Z,2.40
2017-10-05T11:13:33.497Z,1.70
2017-10-05T11:16:01.926Z,1.77
2017-10-05T11:18:30.243Z,1.83
2017-10-05T11:20:59.299Z,1.80
2017-10-05T11:23:27.615Z,2.30
2017-10-05T11:25:55.931Z,1.83
2017-10-05T11:28:24.982Z,1.97
2017-10-05T11:30:53.310Z,1.80
2017-10-05T11:33:21.634Z,1.57
2017-10-05T11:35:49.914Z,1.70
2017-10-05T11:38:18.972Z,1.70
2017-10-05T11:40:47.378Z,1.03
2017-10-05T11:43:15.779Z,2.30
2017-10-05T11:45:44.094Z,1.27
2017-10-05T11:48:13.191Z,1.07
2017-10-05T11:50:42.282Z,1.60
2017-10-05T11:53:10.564Z,1.53
2017-10-05T11:55:38.879Z,2.73
2017-10-05T11:58:07.975Z,1.50
2017-10-05T12:00:36.263Z,1.00
2017-10-05T12:03:04.638Z,1.00
2017-10-05T12:05:32.950Z,1.20
2017-10-05T12:08:01.236Z,1.57
2017-10-05T12:10:30.331Z,1.27
2017-10-05T12:12:58.610Z,0.97
2017-10-05T12:15:26.922Z,1.57
2017-10-05T12:17:56.009Z,2.27
2017-10-05T12:20:24.294Z,1.67
2017-10-05T12:22:52.614Z,1.80
2017-10-05T12:25:21.662Z,1.93
2017-10-05T12:27:49.994Z,2.10
2017-10-05T12:30:18.310Z,1.27
2017-10-05T12:32:47.400Z,0.90
2017-10-05T12:35:15.705Z,2.20
2017-10-05T12:37:44.764Z,1.70
2017-10-05T12:40:13.071Z,1.33
2017-10-05T12:42:41.355Z,1.70
2017-10-05T12:45:09.695Z,1.73
2017-10-05T12:47:38.055Z,1.63
2017-10-05T12:50:06.338Z,1.70
2017-10-05T12:52:34.664Z,1.60
2017-10-05T12:55:02.995Z,1.77
2017-10-05T12:57:31.403Z,2.20
2017-10-05T12:59:59.693Z,2.10
2017-10-05T13:02:27.978Z,2.23
2017-10-05T13:04:56.290Z,2.70
2017-10-05T13:07:25.370Z,2.30
2017-10-05T13:09:53.660Z,2.20
2017-10-05T13:12:21.978Z,2.30
2017-10-05T13:14:51.062Z,2.10
2017-10-05T13:17:19.399Z,2.60
2017-10-05T13:19:47.682Z,2.57
2017-10-05T13:22:15.966Z,1.77
2017-10-05T13:24:45.052Z,5.13
2017-10-05T13:27:13.411Z,2.93
2017-10-05T13:29:41.693Z,4.23
2017-10-05T13:32:10.002Z,2.53
2017-10-05T13:34:40.040Z,2.20
2017-10-05T13:37:09.617Z,2.00
2017-10-05T13:39:40.000Z,2.20
2017-10-05T13:42:08.470Z,1.73
2017-10-05T13:44:36.776Z,1.30
2017-10-05T13:47:05.062Z,1.47
2017-10-05T13:49:33.755Z,1.63
2017-10-05T13:52:02.036Z,1.07
2017-10-05T13:54:30.343Z,1.60
2017-10-05T13:56:58.658Z,1.70
2017-10-05T13:59:27.707Z,1.17
2017-10-05T14:01:56.032Z,0.93
2017-10-05T14:04:24.392Z,1.10
2017-10-05T14:06:52.666Z,1.00
2017-10-05T14:09:20.983Z,1.00
2017-10-05T14:11:49.383Z,1.10
2017-10-05T14:14:17.782Z,1.23
2017-10-05T14:16:46.843Z,1.17
2017-10-05T14:19:15.152Z,1.23
2017-10-05T14:21:43.454Z,1.07
2017-10-05T14:24:11.967Z,1.10
2017-10-05T14:26:41.769Z,1.13
2017-10-05T14:29:10.092Z,2.73
2017-10-05T14:31:39.175Z,0.60
2017-10-05T14:34:07.460Z,0.60
2017-10-05T14:36:35.774Z,0.40
2017-10-05T14:39:04.167Z,0.40
2017-10-05T14:41:32.447Z,0.40
2017-10-05T14:44:00.740Z,0.40
2017-10-05T14:46:29.114Z,0.50
2017-10-05T14:48:57.510Z,0.60
2017-10-05T14:51:25.918Z,0.50
2017-10-05T14:53:54.231Z,0.70
2017-10-05T14:56:23.314Z,0.40
2017-10-05T14:58:53.089Z,0.70
2017-10-05T15:01:21.418Z,0.50
2017-10-05T15:03:51.259Z,0.50
2017-10-05T15:06:19.556Z,0.50
2017-10-05T15:08:48.602Z,0.40
2017-10-05T15:11:17.021Z,0.40
2017-10-05T15:13:45.339Z,0.50
2017-10-05T15:16:14.423Z,0.40
2017-10-05T15:18:44.256Z,0.40
2017-10-05T15:21:12.638Z,0.40
2017-10-05T15:23:40.918Z,0.40
2017-10-05T15:26:09.238Z,0.30
2017-10-05T15:28:37.606Z,0.30
2017-10-05T15:31:05.912Z,0.30
2017-10-05T15:33:34.251Z,0.30
2017-10-05T15:36:02.574Z,0.30
2017-10-05T15:38:30.866Z,0.30
2017-10-05T15:40:59.263Z,0.30
2017-10-05T15:43:27.646Z,0.97
2017-10-05T15:45:55.994Z,0.30
2017-10-05T15:48:24.282Z,0.30
2017-10-05T15:50:52.595Z,0.30
2017-10-05T15:53:20.982Z,0.30
2017-10-05T15:55:49.262Z,0.67
2017-10-05T15:58:17.577Z,0.30
2017-10-05T16:00:45.884Z,0.60
2017-10-05T16:03:14.158Z,0.30
2017-10-05T16:05:42.462Z,0.30
2017-10-05T16:08:10.743Z,0.40
2017-10-05T16:10:40.007Z,0.30
2017-10-05T16:13:08.338Z,0.30
2017-10-05T16:15:36.656Z,0.30
2017-10-05T16:18:05.699Z,0.30
2017-10-05T16:20:34.007Z,0.30
2017-10-05T16:23:02.314Z,0.33
2017-10-05T16:25:30.596Z,0.30
2017-10-05T16:27:58.907Z,0.40
2017-10-05T16:30:27.192Z,0.30
2017-10-05T16:32:55.498Z,0.30
2017-10-05T16:35:23.864Z,0.30
2017-10-05T16:37:52.259Z,0.30
2017-10-05T16:40:20.544Z,0.37
2017-10-05T16:42:48.863Z,0.43
2017-10-05T16:45:17.916Z,0.30
2017-10-05T16:47:46.254Z,0.40
2017-10-05T16:50:15.312Z,0.30
2017-10-05T16:52:43.638Z,0.30
2017-10-05T16:55:12.679Z,0.50
2017-10-05T16:57:42.595Z,0.40
2017-10-05T17:00:10.906Z,0.50
2017-10-05T17:02:39.955Z,0.50
2017-10-05T17:05:08.266Z,0.40
2017-10-05T17:07:36.594Z,1.03
2017-10-05T17:10:04.942Z,0.50
2017-10-05T17:12:33.224Z,0.40
2017-10-05T17:15:01.559Z,0.30
2017-10-05T17:17:30.628Z,0.40
2017-10-05T17:19:58.939Z,0.40
2017-10-05T17:22:27.307Z,0.40
2017-10-05T17:24:55.582Z,0.67
2017-10-05T17:27:23.886Z,0.50
2017-10-05T17:29:52.212Z,0.40
2017-10-05T17:32:21.259Z,0.43
2017-10-05T17:34:49.534Z,0.50
2017-10-05T17:37:17.842Z,0.57
2017-10-05T17:39:46.147Z,0.40
2017-10-05T17:42:14.462Z,0.50
2017-10-05T17:44:43.663Z,0.57
2017-10-05T17:47:12.135Z,0.53
2017-10-05T17:49:40.532Z,0.50
2017-10-05T17:52:08.874Z,0.60
2017-10-05T17:54:37.178Z,0.50
2017-10-05T17:57:05.497Z,0.70
2017-10-05T17:59:33.775Z,1.33
2017-10-05T18:02:02.052Z,0.60
2017-10-05T18:04:30.365Z,0.50
2017-10-05T18:06:58.771Z,0.60
2017-10-05T18:09:27.843Z,0.60
2017-10-05T18:11:56.115Z,0.60
2017-10-05T18:14:24.414Z,0.50
2017-10-05T18:16:52.747Z,0.90
2017-10-05T18:19:22.526Z,0.60
2017-10-05T18:21:50.952Z,0.60
2017-10-05T18:24:20.848Z,0.67
2017-10-05T18:26:49.131Z,0.60
2017-10-05T18:29:18.155Z,0.80
2017-10-05T18:31:46.439Z,0.50
2017-10-05T18:34:14.722Z,0.60
2017-10-05T18:36:43.042Z,0.60
2017-10-05T18:39:11.361Z,0.80
2017-10-05T18:41:40.412Z,1.30
2017-10-05T18:44:08.730Z,0.90
2017-10-05T18:46:37.015Z,1.53
2017-10-05T18:49:05.325Z,0.70
2017-10-05T18:51:34.407Z,0.60
2017-10-05T18:54:02.709Z,0.50
2017-10-05T18:56:31.099Z,0.50
2017-10-05T18:58:59.492Z,0.50
2017-10-05T19:01:27.780Z,0.60
2017-10-05T19:03:56.108Z,1.27
2017-10-05T19:06:24.396Z,0.50
2017-10-05T19:08:52.714Z,0.50
2017-10-05T19:11:20.998Z,0.57
2017-10-05T19:13:49.284Z,0.50
2017-10-05T19:16:17.627Z,0.53
2017-10-05T19:18:47.267Z,0.60
2017-10-05T19:21:16.324Z,0.70
2017-10-05T19:23:44.612Z,1.20
2017-10-05T19:26:12.931Z,0.73
2017-10-05T19:28:42.028Z,1.53
2017-10-05T19:31:10.415Z,0.70
2017-10-05T19:33:38.731Z,0.90
2017-10-05T19:36:07.923Z,0.83
2017-10-05T19:38:36.232Z,0.50
2017-10-05T19:41:05.288Z,0.70
2017-10-05T19:43:33.611Z,0.53
2017-10-05T19:46:01.896Z,0.93
2017-10-05T19:48:30.288Z,0.60
2017-10-05T19:50:58.628Z,0.60
2017-10-05T19:53:26.967Z,0.63
2017-10-05T19:55:55.327Z,0.70
2017-10-05T19:58:23.756Z,0.60
2017-10-05T20:00:52.084Z,0.77
2017-10-05T20:03:20.371Z,0.50
2017-10-05T20:05:48.691Z,0.60
2017-10-05T20:08:17.011Z,0.70
2017-10-05T20:10:45.299Z,0.60
2017-10-05T20:13:13.636Z,0.60
2017-10-05T20:18:46.015Z,0.60
2017-10-05T20:21:27.059Z,1.47
2017-10-05T20:27:11.872Z,0.90
2017-10-05T20:32:51.860Z,0.70
2017-10-05T20:35:20.216Z,0.70
2017-10-05T20:37:49.304Z,1.17
2017-10-05T20:40:17.616Z,1.00
2017-10-05T20:42:46.671Z,0.80
2017-10-05T20:45:15.039Z,1.23
2017-10-05T20:47:43.366Z,0.60
2017-10-05T20:50:11.652Z,0.70
2017-10-05T20:52:39.983Z,0.70
2017-10-05T20:55:09.031Z,0.73
2017-10-05T20:57:37.315Z,1.03
2017-10-05T21:00:05.635Z,0.80
2017-10-05T21:02:33.964Z,0.67
2017-10-05T21:05:03.020Z,0.60
2017-10-05T21:07:31.299Z,0.97
2017-10-05T21:09:59.623Z,0.70
2017-10-05T21:12:27.960Z,0.70
2017-10-05T21:14:56.248Z,0.67
2017-10-05T21:17:24.532Z,0.70
2017-10-05T21:19:52.851Z,1.07
2017-10-05T21:22:21.143Z,0.70
2017-10-05T21:24:49.469Z,0.60
2017-10-05T21:27:17.751Z,0.70
2017-10-05T21:29:46.083Z,1.10
2017-10-05T21:32:14.635Z,1.50
2017-10-05T21:34:42.924Z,0.80
2017-10-05T21:37:12.028Z,0.80
2017-10-05T21:39:40.347Z,0.70
2017-10-05T21:42:09.435Z,0.80
2017-10-05T21:44:37.731Z,1.73
2017-10-05T21:47:06.780Z,0.80
2017-10-05T21:49:35.099Z,0.77
2017-10-05T21:52:03.387Z,0.90
2017-10-05T21:54:31.683Z,1.17
2017-10-05T21:57:00.004Z,1.00
2017-10-05T21:59:29.090Z,1.13
2017-10-05T22:01:57.473Z,0.80
2017-10-05T22:04:25.867Z,1.33
2017-10-05T22:06:54.150Z,1.20
2017-10-05T22:09:22.471Z,0.80
2017-10-05T22:11:51.525Z,0.87
2017-10-05T22:14:19.938Z,1.10
2017-10-05T22:16:48.298Z,1.00
2017-10-05T22:19:16.579Z,1.20
2017-10-05T22:21:45.017Z,0.90
2017-10-05T22:24:13.309Z,0.90
2017-10-05T22:26:41.596Z,1.00
2017-10-05T22:29:09.925Z,1.00
2017-10-05T22:31:38.207Z,0.80
2017-10-05T22:34:06.535Z,0.90
2017-10-05T22:36:34.985Z,1.30
2017-10-05T22:39:03.670Z,1.10
2017-10-05T22:41:32.056Z,1.47
2017-10-05T22:44:00.334Z,1.30
2017-10-05T22:46:28.623Z,0.77
2017-10-05T22:48:57.014Z,0.80
2017-10-05T22:51:25.298Z,0.90
2017-10-05T22:53:53.623Z,1.37
2017-10-05T22:56:22.677Z,0.70
2017-10-05T22:58:51.003Z,1.43
2017-10-05T23:01:19.288Z,1.17
2017-10-05T23:03:47.567Z,1.73
2017-10-05T23:06:15.874Z,1.43
2017-10-05T23:08:44.931Z,1.40
2017-10-05T23:11:13.259Z,0.80
2017-10-05T23:13:41.644Z,2.20
2017-10-05T23:16:09.932Z,0.97
2017-10-05T23:18:38.255Z,1.47
2017-10-05T23:21:07.303Z,0.90
2017-10-05T23:23:35.634Z,1.17
2017-10-05T23:26:04.682Z,1.37
2017-10-05T23:28:33.011Z,1.30
2017-10-05T23:31:01.404Z,0.70
2017-10-05T23:33:29.692Z,0.90
2017-10-05T23:35:58.027Z,1.53
2017-10-05T23:38:26.307Z,0.80
2017-10-05T23:40:55.355Z,0.70
2017-10-05T23:43:23.770Z,0.80
2017-10-05T23:45:52.051Z,1.00
2017-10-05T23:48:20.371Z,0.80
2017-10-05T23:50:48.743Z,0.70
2017-10-05T23:53:17.067Z,1.30
2017-10-05T23:55:45.379Z,0.63
2017-10-05T23:58:13.662Z,1.10
